This is the latest recevied weather packets stored in our database for station/object KI6SYE. If no packets are shown the sender has not sent any weather packets the latest 10 day(s).
| Time | Temp. | Humidity | Pressure | Rain* | Wind** | Luminosity | Snow |
|---|---|---|---|---|---|---|---|
| 1788643216 | 25° C | 75% | 1012.9 hPa | 0 mm | - | 662 W/m² | - |
| 1788642912 | 23.89° C | 77% | 1012.8 hPa | 0 mm | - | 658 W/m² | - |
| 1788642608 | 23.89° C | 78% | 1013.1 hPa | 0 mm | - | 663 W/m² | - |
| 1788642303 | 23.89° C | 78% | 1013 hPa | 0 mm | - | 669 W/m² | - |
| 1788642003 | 23.89° C | 80% | 1013 hPa | 0 mm | - | 677 W/m² | - |
| 1788641697 | 23.89° C | 79% | 1013 hPa | 0 mm | - | 684 W/m² | - |
| 1788641396 | 23.89° C | 77% | 1013.1 hPa | 0 mm | - | 690 W/m² | - |
| 1788641091 | 24.44° C | 76% | 1013 hPa | 0 mm | - | 696 W/m² | - |
| 1788640791 | 23.89° C | 78% | 1013.2 hPa | 0 mm | - | 702 W/m² | - |
| 1788640486 | 23.89° C | 78% | 1013.3 hPa | 0 mm | - | 708 W/m² | - |
| 1788640182 | 23.89° C | 77% | 1013.3 hPa | 0 mm | - | 711 W/m² | - |
| 1788639877 | 23.89° C | 78% | 1013.4 hPa | 0 mm | - | 718 W/m² | - |
| 1788639572 | 23.33° C | 79% | 1013.5 hPa | 0 mm | - | 720 W/m² | - |
| 1788639267 | 23.89° C | 78% | 1013.4 hPa | 0 mm | - | 724 W/m² | - |
| 1788638967 | 23.33° C | 79% | 1013.4 hPa | 0 mm | - | 725 W/m² | - |
| 1788638663 | 23.33° C | 79% | 1013.5 hPa | 0 mm | - | 727 W/m² | - |
| 1788638361 | 23.33° C | 80% | 1013.7 hPa | 0 mm | - | 730 W/m² | - |
| 1788638056 | 23.89° C | 77% | 1013.8 hPa | 0 mm | - | 731 W/m² | - |
| 1788637752 | 23.33° C | 80% | 1013.7 hPa | 0 mm | - | 732 W/m² | - |
| 1788637446 | 23.33° C | 80% | 1013.8 hPa | 0 mm | - | 732 W/m² | - |
| 1788637145 | 23.33° C | 80% | 1014 hPa | 0 mm | - | 733 W/m² | - |
| 1788636840 | 23.89° C | 79% | 1014.1 hPa | 0 mm | - | 732 W/m² | - |
| 1788636536 | 23.89° C | 77% | 1013.8 hPa | 0 mm | - | 730 W/m² | - |
| 1788636231 | 23.89° C | 79% | 1014 hPa | 0 mm | - | 729 W/m² | - |
| 1788635931 | 23.89° C | 78% | 1013.8 hPa | 0 mm | - | 730 W/m² | - |
* Rain latest hour (hover to see other rain measurements)
** Current wind speed in m/s (hover to see current wind gust speed)